createdAt,value
2017-12-19T00:04:01.726Z,0.84
2017-12-19T00:06:30.766Z,0.82
2017-12-19T00:09:03.059Z,0.91
2017-12-19T00:11:45.979Z,0.90
2017-12-19T00:14:15.026Z,0.80
2017-12-19T00:16:51.253Z,0.78
2017-12-19T00:19:20.316Z,0.90
2017-12-19T00:21:53.562Z,0.82
2017-12-19T00:24:35.162Z,0.90
2017-12-19T00:27:08.515Z,0.98
2017-12-19T00:29:37.563Z,0.73
2017-12-19T00:32:09.490Z,0.90
2017-12-19T00:34:38.760Z,1.03
2017-12-19T00:37:07.775Z,0.89
2017-12-19T00:42:13.646Z,1.05
2017-12-19T00:44:42.686Z,1.02
2017-12-19T00:49:52.878Z,0.97
2017-12-19T00:52:31.918Z,0.76
2017-12-19T00:55:01.016Z,0.83
2017-12-19T00:57:40.931Z,0.88
2017-12-19T01:00:09.974Z,0.77
2017-12-19T01:05:21.957Z,0.88
2017-12-19T01:07:51.008Z,0.75
2017-12-19T01:12:55.324Z,0.92
2017-12-19T01:17:59.550Z,0.88
2017-12-19T01:20:28.594Z,0.81
2017-12-19T01:22:57.667Z,0.88
2017-12-19T01:25:37.176Z,0.81
2017-12-19T01:28:06.249Z,0.98
2017-12-19T01:30:35.281Z,0.91
2017-12-19T01:33:04.338Z,0.98
2017-12-19T01:35:33.382Z,0.87
2017-12-19T01:38:02.463Z,0.88
2017-12-19T01:40:32.478Z,0.96
2017-12-19T01:43:01.515Z,0.88
2017-12-19T01:45:48.290Z,0.91
2017-12-19T01:50:53.486Z,0.70
2017-12-19T01:53:26.324Z,0.70
2017-12-19T01:55:55.378Z,0.77
2017-12-19T01:58:38.842Z,0.79
2017-12-19T02:01:07.886Z,0.69
2017-12-19T02:03:40.726Z,0.68
2017-12-19T02:06:09.817Z,0.52
2017-12-19T02:08:38.854Z,0.57
2017-12-19T02:11:07.954Z,0.49
2017-12-19T02:13:50.030Z,0.56
2017-12-19T02:18:56.240Z,0.53
2017-12-19T02:24:03.485Z,0.46
2017-12-19T02:26:32.521Z,0.49
2017-12-19T02:29:01.562Z,0.52
2017-12-19T02:31:36.301Z,0.46
2017-12-19T02:34:05.354Z,0.41
2017-12-19T02:36:42.211Z,0.49
2017-12-19T02:39:22.970Z,0.33
2017-12-19T02:41:52.023Z,0.27
2017-12-19T02:44:21.116Z,0.36
2017-12-19T02:46:50.169Z,0.36
2017-12-19T02:49:22.361Z,0.42
2017-12-19T02:51:51.422Z,0.36
2017-12-19T02:54:20.554Z,0.30
2017-12-19T03:02:01.226Z,0.29
2017-12-19T03:04:30.265Z,0.25
2017-12-19T03:06:59.301Z,0.24
2017-12-19T03:09:30.322Z,0.27
2017-12-19T03:11:59.386Z,0.27
2017-12-19T03:14:28.406Z,0.16
2017-12-19T03:16:57.450Z,0.21
2017-12-19T03:19:26.511Z,0.23
2017-12-19T03:21:55.561Z,0.14
2017-12-19T03:24:24.615Z,0.16
2017-12-19T03:26:54.607Z,0.30
2017-12-19T03:29:23.635Z,0.28
2017-12-19T03:31:52.702Z,0.40
2017-12-19T03:34:23.674Z,0.52
2017-12-19T03:36:52.725Z,0.61
2017-12-19T03:42:04.585Z,0.66
2017-12-19T03:44:35.586Z,0.73
2017-12-19T03:47:04.706Z,0.69
2017-12-19T03:49:33.747Z,0.78
2017-12-19T03:52:02.819Z,0.66
2017-12-19T03:54:31.863Z,0.79
2017-12-19T03:57:00.956Z,0.68
2017-12-19T03:59:30.910Z,0.76
2017-12-19T04:02:00.092Z,0.66
2017-12-19T04:04:31.035Z,0.80
2017-12-19T04:07:00.101Z,0.81
2017-12-19T04:09:30.064Z,0.88
2017-12-19T04:11:59.109Z,0.73
2017-12-19T04:17:03.336Z,0.86
2017-12-19T04:22:35.570Z,0.76
2017-12-19T04:25:04.618Z,0.67
2017-12-19T04:27:34.698Z,0.82
2017-12-19T04:30:03.757Z,0.68
2017-12-19T04:32:40.134Z,0.67
2017-12-19T04:35:09.178Z,0.75
2017-12-19T04:37:40.211Z,0.64
2017-12-19T04:40:09.257Z,0.81
2017-12-19T04:42:49.567Z,0.90
2017-12-19T04:47:56.506Z,0.65
2017-12-19T04:50:29.638Z,0.48
2017-12-19T04:52:58.718Z,0.54
2017-12-19T04:55:49.314Z,0.47
2017-12-19T04:58:26.364Z,0.52
2017-12-19T05:00:55.408Z,0.72
2017-12-19T05:03:24.437Z,0.64
2017-12-19T05:05:54.438Z,0.79
2017-12-19T05:08:23.457Z,0.67
2017-12-19T05:10:52.498Z,0.65
2017-12-19T05:13:21.537Z,0.76
2017-12-19T05:15:50.591Z,0.62
2017-12-19T05:18:19.638Z,0.67
2017-12-19T05:20:48.686Z,0.59
2017-12-19T05:23:21.231Z,0.69
2017-12-19T05:25:50.261Z,0.74
2017-12-19T05:28:22.970Z,0.68
2017-12-19T05:30:52.018Z,0.83
2017-12-19T05:33:22.006Z,0.93
2017-12-19T05:35:51.062Z,1.04
2017-12-19T05:38:20.114Z,1.04
2017-12-19T05:40:49.170Z,0.82
2017-12-19T05:43:18.211Z,0.87
2017-12-19T05:45:48.222Z,0.90
2017-12-19T05:48:21.707Z,0.73
2017-12-19T05:50:51.024Z,0.81
2017-12-19T05:53:30.690Z,0.75
2017-12-19T05:56:00.650Z,0.81
2017-12-19T06:01:04.958Z,0.95
2017-12-19T06:08:50.435Z,0.83
2017-12-19T06:11:45.411Z,0.67
2017-12-19T06:14:14.442Z,0.83
2017-12-19T06:16:43.550Z,0.86
2017-12-19T06:19:16.221Z,0.66
2017-12-19T06:26:58.725Z,0.68
2017-12-19T06:29:31.551Z,0.60
2017-12-19T06:32:00.603Z,0.52
2017-12-19T06:37:08.807Z,0.79
2017-12-19T06:42:30.506Z,0.70
2017-12-19T06:44:59.565Z,0.73
2017-12-19T06:47:28.630Z,0.88
2017-12-19T06:49:57.678Z,0.71
2017-12-19T06:52:27.754Z,0.75
2017-12-19T06:54:56.846Z,0.82
2017-12-19T06:57:29.319Z,0.74
2017-12-19T06:59:58.392Z,0.92
2017-12-19T07:02:37.259Z,0.88
2017-12-19T07:05:06.325Z,0.94
2017-12-19T07:07:47.196Z,1.00
2017-12-19T07:12:57.604Z,0.93
2017-12-19T07:15:39.428Z,0.91
2017-12-19T07:18:08.494Z,1.06
2017-12-19T07:23:14.666Z,1.01
2017-12-19T07:25:51.559Z,0.81
2017-12-19T07:28:21.679Z,0.90
2017-12-19T07:30:50.764Z,0.81
2017-12-19T07:33:25.043Z,0.95
2017-12-19T07:35:58.139Z,0.97
2017-12-19T07:38:28.210Z,1.06
2017-12-19T07:40:57.310Z,1.11
2017-12-19T07:43:26.359Z,0.90
2017-12-19T07:48:33.303Z,1.03
2017-12-19T07:51:02.291Z,1.07
2017-12-19T07:53:31.321Z,0.97
2017-12-19T07:56:04.118Z,0.99
2017-12-19T07:58:33.163Z,1.06
2017-12-19T08:01:15.221Z,1.01
2017-12-19T08:03:44.302Z,1.08
2017-12-19T08:06:24.297Z,1.13
2017-12-19T08:08:57.229Z,1.06
2017-12-19T08:11:26.293Z,1.21
2017-12-19T08:14:00.798Z,1.13
2017-12-19T08:16:33.790Z,1.28
2017-12-19T08:19:06.282Z,1.36
2017-12-19T08:21:39.086Z,1.35
2017-12-19T08:24:11.840Z,1.31
2017-12-19T08:26:40.884Z,1.32
2017-12-19T08:31:45.104Z,1.47
2017-12-19T08:34:31.926Z,1.36
2017-12-19T08:37:02.000Z,1.48
2017-12-19T08:39:31.054Z,1.48
2017-12-19T08:42:31.815Z,1.62
2017-12-19T08:47:41.055Z,1.50
2017-12-19T08:50:10.087Z,1.61
2017-12-19T08:52:39.138Z,1.58
2017-12-19T08:55:10.078Z,1.63
2017-12-19T08:57:39.135Z,1.70
2017-12-19T09:00:10.123Z,1.87
2017-12-19T09:02:39.168Z,1.86
2017-12-19T09:05:08.223Z,2.01
2017-12-19T09:07:37.262Z,2.07
2017-12-19T09:12:43.163Z,2.21
2017-12-19T09:15:15.914Z,2.06
2017-12-19T09:17:45.012Z,1.97
2017-12-19T09:20:34.975Z,2.01
2017-12-19T09:25:47.156Z,1.90
2017-12-19T09:28:19.947Z,1.82
2017-12-19T09:30:50.023Z,2.00
2017-12-19T09:36:16.971Z,1.95
2017-12-19T09:38:46.021Z,1.79
2017-12-19T09:41:25.239Z,1.91
2017-12-19T09:46:32.705Z,2.47
2017-12-19T09:51:40.073Z,2.66
2017-12-19T09:54:10.054Z,2.42
2017-12-19T09:56:39.098Z,2.64
2017-12-19T09:59:10.054Z,2.59
2017-12-19T10:01:39.103Z,2.74
2017-12-19T10:04:10.050Z,2.58
2017-12-19T10:06:39.080Z,2.69
2017-12-19T10:09:24.818Z,2.92
2017-12-19T10:12:04.897Z,2.92
2017-12-19T10:14:33.942Z,2.77
2017-12-19T10:17:06.856Z,2.77
2017-12-19T10:19:36.822Z,2.75
2017-12-19T10:22:05.866Z,2.94
2017-12-19T10:24:34.917Z,2.90
2017-12-19T10:27:16.732Z,2.99
2017-12-19T10:29:45.769Z,2.93
2017-12-19T10:32:19.654Z,2.96
2017-12-19T10:34:48.682Z,3.00
2017-12-19T10:37:31.232Z,3.16
2017-12-19T10:40:31.596Z,3.33
2017-12-19T10:45:35.849Z,3.22
2017-12-19T10:48:26.581Z,3.04
2017-12-19T10:54:04.972Z,3.23
2017-12-19T10:56:35.396Z,3.49
2017-12-19T10:59:05.382Z,3.42
2017-12-19T11:01:35.515Z,3.34
2017-12-19T11:04:15.952Z,3.22
2017-12-19T11:06:45.003Z,3.37
2017-12-19T11:09:17.901Z,3.44
2017-12-19T11:11:46.938Z,3.26
2017-12-19T11:14:19.327Z,3.27
2017-12-19T11:16:48.369Z,3.25
2017-12-19T11:22:14.986Z,3.33
2017-12-19T11:24:44.024Z,3.31
2017-12-19T11:29:56.268Z,3.34
2017-12-19T11:32:31.747Z,3.39
2017-12-19T11:35:07.937Z,3.36
2017-12-19T11:37:37.873Z,3.46
2017-12-19T11:40:10.462Z,3.53
2017-12-19T11:42:40.450Z,3.37
2017-12-19T11:47:47.955Z,3.87
2017-12-19T11:50:31.808Z,4.10
2017-12-19T11:53:00.866Z,3.91
2017-12-19T11:55:31.079Z,3.80
2017-12-19T11:58:00.094Z,3.81
2017-12-19T12:00:31.079Z,4.06
2017-12-19T12:03:22.098Z,4.23
2017-12-19T12:06:14.322Z,4.01
2017-12-19T12:08:48.803Z,4.41
2017-12-19T12:11:32.166Z,4.72
2017-12-19T12:14:05.087Z,4.94
2017-12-19T12:16:34.133Z,4.51
2017-12-19T12:19:11.579Z,4.45
2017-12-19T12:21:40.634Z,4.36
2017-12-19T12:24:27.251Z,4.12
2017-12-19T12:26:56.323Z,3.88
2017-12-19T12:29:38.090Z,3.80
2017-12-19T12:32:29.374Z,3.92
2017-12-19T12:35:00.319Z,3.83
2017-12-19T12:37:31.277Z,3.67
2017-12-19T12:40:04.632Z,3.83
2017-12-19T12:42:34.695Z,3.73
2017-12-19T12:45:28.632Z,3.52
2017-12-19T12:50:34.682Z,3.56
2017-12-19T12:53:05.082Z,3.92
2017-12-19T12:55:34.144Z,4.07
2017-12-19T12:58:03.173Z,3.94
2017-12-19T13:00:33.151Z,3.92
2017-12-19T13:03:02.238Z,3.59
2017-12-19T13:05:36.460Z,3.35
2017-12-19T13:08:05.810Z,3.08
2017-12-19T13:10:38.634Z,2.82
2017-12-19T13:13:07.678Z,2.80
2017-12-19T13:15:44.336Z,2.75
2017-12-19T13:18:13.409Z,2.67
2017-12-19T13:20:42.445Z,2.63
2017-12-19T13:23:11.528Z,2.45
2017-12-19T13:25:42.455Z,2.56
2017-12-19T13:28:11.500Z,2.61
2017-12-19T13:30:43.627Z,2.64
2017-12-19T13:33:12.696Z,2.66
2017-12-19T13:35:53.491Z,2.68
2017-12-19T13:38:26.320Z,2.65
2017-12-19T13:40:56.253Z,2.72
2017-12-19T13:46:03.464Z,2.78
2017-12-19T13:48:33.430Z,2.83
2017-12-19T13:51:02.477Z,2.92
2017-12-19T13:56:09.750Z,3.03
2017-12-19T13:58:42.638Z,3.03
2017-12-19T14:01:11.678Z,2.92
2017-12-19T14:03:44.484Z,2.87
2017-12-19T14:06:13.530Z,2.93
2017-12-19T14:08:53.569Z,2.85
2017-12-19T14:11:26.381Z,2.74
2017-12-19T14:14:18.310Z,2.69
2017-12-19T14:19:30.061Z,2.94
2017-12-19T14:22:01.067Z,2.73
2017-12-19T14:24:30.119Z,2.65
2017-12-19T14:27:01.119Z,2.52
2017-12-19T14:29:45.138Z,2.40
2017-12-19T14:32:14.207Z,2.34
2017-12-19T14:35:04.210Z,2.29
2017-12-19T14:40:09.435Z,2.35
2017-12-19T14:42:38.475Z,2.38
2017-12-19T14:45:10.996Z,2.45
2017-12-19T14:47:40.038Z,2.46
2017-12-19T14:52:46.250Z,2.39
2017-12-19T14:55:16.166Z,2.24
2017-12-19T15:00:22.678Z,2.24
2017-12-19T15:02:55.521Z,2.34
2017-12-19T15:05:24.558Z,2.26
2017-12-19T15:07:57.160Z,2.37
2017-12-19T15:10:26.198Z,2.31
2017-12-19T15:16:08.664Z,2.31
2017-12-19T15:18:39.642Z,2.20
2017-12-19T15:21:09.602Z,2.31
2017-12-19T15:23:38.654Z,2.29
2017-12-19T15:26:08.632Z,2.16
2017-12-19T15:28:41.462Z,2.21
2017-12-19T15:34:06.547Z,2.11
2017-12-19T15:36:48.535Z,1.98
2017-12-19T15:39:17.561Z,1.99
2017-12-19T15:41:54.606Z,2.16
2017-12-19T15:47:02.952Z,2.08
2017-12-19T15:49:33.665Z,2.20
2017-12-19T15:52:32.763Z,2.27
2017-12-19T15:55:01.810Z,2.06
2017-12-19T15:57:32.794Z,2.12
2017-12-19T16:00:05.170Z,2.21
2017-12-19T16:02:34.225Z,2.05
2017-12-19T16:05:11.403Z,2.06
2017-12-19T16:07:40.454Z,1.91
2017-12-19T16:10:13.091Z,1.93
2017-12-19T16:12:44.131Z,2.00
2017-12-19T16:15:18.719Z,2.02
2017-12-19T16:17:47.754Z,2.01
2017-12-19T16:20:18.813Z,2.05
2017-12-19T16:22:48.923Z,2.15
2017-12-19T16:25:18.934Z,2.05
2017-12-19T16:27:48.891Z,2.20
2017-12-19T16:30:25.747Z,2.11
2017-12-19T16:32:54.883Z,2.16
2017-12-19T16:35:27.253Z,2.04
2017-12-19T16:38:01.155Z,2.14
2017-12-19T16:40:32.229Z,2.00
2017-12-19T16:43:32.390Z,2.10
2017-12-19T16:46:25.816Z,2.02
2017-12-19T16:48:54.870Z,2.09
2017-12-19T16:51:27.729Z,1.97
2017-12-19T16:54:00.494Z,1.88
2017-12-19T16:59:31.897Z,1.82
2017-12-19T17:02:19.802Z,1.70
2017-12-19T17:04:49.832Z,1.71
2017-12-19T17:10:09.978Z,1.89
2017-12-19T17:12:39.003Z,1.76
2017-12-19T17:15:08.074Z,1.74
2017-12-19T17:17:50.124Z,1.75
2017-12-19T17:20:32.339Z,1.78
2017-12-19T17:23:01.483Z,1.66
2017-12-19T17:25:54.626Z,1.71
2017-12-19T17:30:59.879Z,1.74
2017-12-19T17:36:08.279Z,1.75
2017-12-19T17:44:09.187Z,1.89
2017-12-19T17:49:15.361Z,1.86
2017-12-19T17:54:21.499Z,1.91
2017-12-19T17:56:54.274Z,2.01
2017-12-19T18:02:02.512Z,2.02
2017-12-19T18:04:53.394Z,2.16
2017-12-19T18:07:31.575Z,2.00
2017-12-19T18:10:00.642Z,2.09
2017-12-19T18:15:12.075Z,2.23
2017-12-19T18:17:41.109Z,2.26
2017-12-19T18:20:10.142Z,2.26
2017-12-19T18:22:39.203Z,2.12
2017-12-19T18:25:08.308Z,2.07
2017-12-19T18:30:22.547Z,2.20
2017-12-19T18:32:55.366Z,2.12
2017-12-19T18:35:28.184Z,2.08
2017-12-19T18:38:01.035Z,1.83
2017-12-19T18:40:30.094Z,1.89
2017-12-19T18:43:03.660Z,1.88
2017-12-19T18:45:32.702Z,1.91
2017-12-19T18:50:50.944Z,2.07
2017-12-19T18:53:20.660Z,1.94
2017-12-19T18:56:00.631Z,1.92
2017-12-19T18:58:29.691Z,1.78
2017-12-19T19:01:02.453Z,1.84
2017-12-19T19:03:31.495Z,1.91
2017-12-19T19:06:10.186Z,1.83
2017-12-19T19:11:20.184Z,1.89
2017-12-19T19:13:52.642Z,1.82
2017-12-19T19:16:21.713Z,1.84
2017-12-19T19:19:18.190Z,1.64
2017-12-19T19:21:47.238Z,1.67
2017-12-19T19:24:19.760Z,1.53
2017-12-19T19:26:48.811Z,1.65
2017-12-19T19:29:21.578Z,1.70
2017-12-19T19:34:28.854Z,1.58
2017-12-19T19:36:57.962Z,1.65
2017-12-19T19:39:26.958Z,1.65
2017-12-19T19:44:37.182Z,1.68
2017-12-19T19:49:45.404Z,1.56
2017-12-19T19:52:18.259Z,1.57
2017-12-19T19:54:47.388Z,1.61
2017-12-19T19:57:29.018Z,1.56
2017-12-19T19:59:58.098Z,1.60
2017-12-19T20:02:37.983Z,1.61
2017-12-19T20:07:44.190Z,1.56
2017-12-19T20:12:51.454Z,1.53
2017-12-19T20:15:22.410Z,1.55
2017-12-19T20:17:51.453Z,1.41
2017-12-19T20:20:22.465Z,1.48
2017-12-19T20:22:51.686Z,1.47
2017-12-19T20:25:20.768Z,1.60
2017-12-19T20:27:49.811Z,1.52
2017-12-19T20:30:18.882Z,1.54
2017-12-19T20:35:23.240Z,1.57
2017-12-19T20:37:52.306Z,1.65
2017-12-19T20:42:58.610Z,1.47
2017-12-19T20:45:30.642Z,1.45
2017-12-19T20:48:00.903Z,1.50
2017-12-19T20:50:29.982Z,1.58
2017-12-19T20:52:59.022Z,1.66
2017-12-19T20:55:28.136Z,1.42
2017-12-19T20:57:57.196Z,1.32
2017-12-19T21:00:26.344Z,1.41
2017-12-19T21:02:56.536Z,1.31
2017-12-19T21:05:25.596Z,1.37
2017-12-19T21:07:54.675Z,1.30
2017-12-19T21:10:23.751Z,1.30
2017-12-19T21:12:53.090Z,1.04
2017-12-19T21:15:22.130Z,1.06
2017-12-19T21:18:04.909Z,1.15
2017-12-19T21:20:33.929Z,1.21
2017-12-19T21:23:03.396Z,1.14
2017-12-19T21:25:32.507Z,1.05
2017-12-19T21:28:05.211Z,1.13
2017-12-19T21:30:39.912Z,1.06
2017-12-19T21:33:14.308Z,1.16
2017-12-19T21:35:47.338Z,1.11
2017-12-19T21:38:16.382Z,1.06
2017-12-19T21:40:55.901Z,1.06
2017-12-19T21:43:24.959Z,0.99
2017-12-19T21:45:56.008Z,0.84
2017-12-19T21:48:28.699Z,0.85
2017-12-19T21:50:58.671Z,0.89
2017-12-19T21:53:28.624Z,0.98
2017-12-19T21:56:04.906Z,0.82
2017-12-19T21:58:34.918Z,0.77
2017-12-19T22:01:07.736Z,0.83
2017-12-19T22:03:40.598Z,0.84
2017-12-19T22:06:09.679Z,0.83
2017-12-19T22:08:40.615Z,0.76
2017-12-19T22:11:09.659Z,0.80
2017-12-19T22:16:15.543Z,0.88
2017-12-19T22:18:45.489Z,0.86
2017-12-19T22:21:14.535Z,0.70
2017-12-19T22:23:43.579Z,0.74
2017-12-19T22:26:12.617Z,0.86
2017-12-19T22:28:41.698Z,0.80
2017-12-19T22:31:10.770Z,0.81
2017-12-19T22:33:39.843Z,0.90
2017-12-19T22:36:17.157Z,0.76
2017-12-19T22:38:46.193Z,0.71
2017-12-19T22:41:19.071Z,0.73
2017-12-19T22:46:39.464Z,0.91
2017-12-19T22:49:21.491Z,0.88
2017-12-19T22:51:51.391Z,0.91
2017-12-19T22:56:56.629Z,0.89
2017-12-19T22:59:25.683Z,1.04
2017-12-19T23:01:54.723Z,1.02
2017-12-19T23:04:23.773Z,1.03
2017-12-19T23:06:52.822Z,0.91
2017-12-19T23:11:59.176Z,0.90
2017-12-19T23:14:30.180Z,0.85
2017-12-19T23:16:59.254Z,0.77
2017-12-19T23:19:28.290Z,0.71
2017-12-19T23:21:57.322Z,0.80
2017-12-19T23:24:34.981Z,0.92
2017-12-19T23:29:41.206Z,0.86
2017-12-19T23:32:10.253Z,0.97
2017-12-19T23:34:40.298Z,0.97
2017-12-19T23:37:09.378Z,1.01
2017-12-19T23:39:38.541Z,0.97
2017-12-19T23:42:12.694Z,0.98
2017-12-19T23:44:41.734Z,1.09
2017-12-19T23:47:10.847Z,1.05
2017-12-19T23:49:39.906Z,1.05
2017-12-19T23:52:09.930Z,1.01
2017-12-19T23:54:40.976Z,1.01
2017-12-19T23:57:15.902Z,1.06
2017-12-19T23:59:50.056Z,1.05
